createdAt,value
2023-04-03T00:01:14.601Z,4.72
2023-04-03T00:03:44.323Z,4.95
2023-04-03T00:06:13.504Z,5.32
2023-04-03T00:08:42.368Z,5.13
2023-04-03T00:11:11.536Z,4.80
2023-04-03T00:13:40.458Z,5.22
2023-04-03T00:16:09.168Z,4.82
2023-04-03T00:18:37.860Z,4.72
2023-04-03T00:21:08.695Z,4.28
2023-04-03T00:23:37.208Z,4.70
2023-04-03T00:26:05.803Z,4.47
2023-04-03T00:28:33.946Z,5.18
2023-04-03T00:31:02.538Z,4.90
2023-04-03T00:33:30.753Z,4.97
2023-04-03T00:35:59.242Z,6.30
2023-04-03T00:38:28.869Z,5.95
2023-04-03T00:40:57.484Z,5.97
2023-04-03T00:43:27.361Z,6.05
2023-04-03T00:45:59.020Z,6.80
2023-04-03T00:48:30.383Z,6.57
2023-04-03T00:50:59.738Z,7.32
2023-04-03T00:53:31.921Z,6.82
2023-04-03T00:56:01.055Z,7.20
2023-04-03T00:58:35.609Z,6.75
2023-04-03T01:01:07.721Z,6.15
2023-04-03T01:03:35.934Z,7.07
2023-04-03T01:06:06.898Z,6.63
2023-04-03T01:08:36.745Z,6.55
2023-04-03T01:11:05.703Z,6.65
2023-04-03T01:13:35.312Z,5.93
2023-04-03T01:16:04.632Z,4.63
2023-04-03T01:18:33.823Z,4.70
2023-04-03T01:21:27.999Z,4.18
2023-04-03T01:24:06.821Z,4.22
2023-04-03T01:26:36.665Z,4.18
2023-04-03T01:29:05.088Z,4.88
2023-04-03T01:31:50.810Z,5.25
2023-04-03T01:34:20.786Z,5.55
2023-04-03T01:36:49.398Z,5.65
2023-04-03T01:39:17.657Z,5.38
2023-04-03T01:41:46.592Z,5.85
2023-04-03T01:44:14.841Z,5.43
2023-04-03T01:46:43.420Z,6.28
2023-04-03T01:49:13.172Z,6.88
2023-04-03T01:51:41.588Z,5.93
2023-04-03T01:54:09.761Z,6.72
2023-04-03T01:56:39.265Z,6.75
2023-04-03T01:59:07.384Z,5.72
2023-04-03T02:01:36.047Z,6.43
2023-04-03T02:04:04.403Z,6.68
2023-04-03T02:06:34.184Z,7.40
2023-04-03T02:09:02.316Z,7.15
2023-04-03T02:11:31.208Z,7.85
2023-04-03T02:13:59.344Z,9.43
2023-04-03T02:16:27.777Z,8.45
2023-04-03T02:18:56.099Z,26.17
2023-04-03T02:21:24.577Z,9.43
2023-04-03T02:23:54.143Z,15.93
2023-04-03T02:26:22.834Z,11.65
2023-04-03T02:28:51.100Z,9.63
2023-04-03T02:31:19.998Z,9.75
2023-04-03T02:33:48.205Z,10.52
2023-04-03T02:36:16.584Z,9.57
2023-04-03T02:38:44.830Z,11.27
2023-04-03T02:41:14.906Z,9.73
2023-04-03T02:43:43.086Z,9.15
2023-04-03T02:46:11.785Z,10.00
2023-04-03T02:48:39.971Z,9.25
2023-04-03T02:51:08.381Z,9.02
2023-04-03T02:53:36.497Z,8.40
2023-04-03T02:56:05.038Z,7.60
2023-04-03T02:58:34.523Z,7.40
2023-04-03T03:01:02.972Z,8.75
2023-04-03T03:03:31.166Z,8.85
2023-04-03T03:06:06.610Z,8.30
2023-04-03T03:08:34.929Z,8.90
2023-04-03T03:11:03.419Z,8.60
2023-04-03T03:13:32.141Z,8.43
2023-04-03T03:16:02.027Z,9.55
2023-04-03T03:18:31.413Z,9.07
2023-04-03T03:21:01.165Z,9.63
2023-04-03T03:23:30.715Z,7.80
2023-04-03T03:26:00.228Z,8.40
2023-04-03T03:28:28.532Z,7.93
2023-04-03T03:30:56.955Z,8.68
2023-04-03T03:33:27.293Z,9.65
2023-04-03T03:35:56.605Z,9.25
2023-04-03T03:38:25.015Z,10.93
2023-04-03T03:40:53.625Z,11.18
2023-04-03T03:43:22.126Z,10.93
2023-04-03T03:45:52.690Z,15.73
2023-04-03T03:48:21.384Z,16.67
2023-04-03T03:50:51.545Z,12.93
2023-04-03T03:53:20.215Z,35.22
2023-04-03T03:55:48.684Z,26.92
2023-04-03T03:58:17.031Z,12.48
2023-04-03T04:00:45.415Z,11.43
2023-04-03T04:03:13.710Z,12.20
2023-04-03T04:05:42.136Z,11.23
2023-04-03T04:08:11.655Z,13.48
2023-04-03T04:10:40.336Z,15.50
2023-04-03T04:13:08.484Z,16.05
2023-04-03T04:15:37.185Z,33.33
2023-04-03T04:18:05.782Z,32.72
2023-04-03T04:20:34.374Z,33.38
2023-04-03T04:23:02.530Z,21.55
2023-04-03T04:25:32.269Z,37.50
2023-04-03T04:28:00.412Z,12.30
2023-04-03T04:30:28.821Z,12.55
2023-04-03T04:32:57.063Z,12.02
2023-04-03T04:35:25.611Z,7.43
2023-04-03T04:37:53.818Z,6.38
2023-04-03T04:40:22.198Z,6.47
2023-04-03T04:42:51.863Z,6.47
2023-04-03T04:45:20.853Z,5.90
2023-04-03T04:47:49.124Z,6.80
2023-04-03T04:50:18.337Z,6.50
2023-04-03T04:52:46.549Z,5.95
2023-04-03T04:55:15.127Z,5.45
2023-04-03T04:57:43.299Z,6.15
2023-04-03T05:00:14.718Z,5.22
2023-04-03T05:02:42.903Z,4.80
2023-04-03T05:05:11.509Z,5.93
2023-04-03T05:07:39.738Z,6.20
2023-04-03T05:10:09.878Z,6.47
2023-04-03T05:12:38.031Z,6.28
2023-04-03T05:15:07.674Z,7.57
2023-04-03T05:17:37.292Z,8.02
2023-04-03T05:20:07.058Z,7.07
2023-04-03T05:22:35.261Z,6.88
2023-04-03T05:25:03.659Z,6.45
2023-04-03T05:27:31.888Z,6.70
2023-04-03T05:30:00.746Z,7.20
2023-04-03T05:32:29.312Z,7.80
2023-04-03T05:35:00.181Z,8.63
2023-04-03T05:37:29.650Z,10.05
2023-04-03T05:39:58.278Z,9.30
2023-04-03T05:42:26.834Z,9.88
2023-04-03T05:44:55.244Z,9.50
2023-04-03T05:47:24.336Z,9.20
2023-04-03T05:49:52.743Z,7.90
2023-04-03T05:52:23.779Z,7.70
2023-04-03T05:54:52.278Z,5.57
2023-04-03T05:57:21.295Z,5.93
2023-04-03T05:59:50.380Z,5.38
2023-04-03T06:02:22.955Z,6.18
2023-04-03T06:04:53.181Z,6.07
2023-04-03T06:07:24.470Z,7.40
2023-04-03T06:09:53.401Z,6.77
2023-04-03T06:12:22.098Z,7.53
2023-04-03T06:14:51.140Z,6.43
2023-04-03T06:17:20.254Z,6.45
2023-04-03T06:19:48.994Z,7.47
2023-04-03T06:22:17.263Z,4.93
2023-04-03T06:24:47.541Z,5.20
2023-04-03T06:27:15.814Z,4.22
2023-04-03T06:29:45.192Z,5.82
2023-04-03T06:32:13.418Z,5.45
2023-04-03T06:34:42.595Z,5.80
2023-04-03T06:37:13.278Z,6.53
2023-04-03T06:39:41.797Z,6.13
2023-04-03T06:42:11.949Z,6.22
2023-04-03T06:44:40.980Z,5.35
2023-04-03T06:47:10.411Z,4.45
2023-04-03T06:49:39.009Z,4.38
2023-04-03T06:52:07.493Z,4.35
2023-04-03T06:54:36.334Z,4.53
2023-04-03T06:57:04.993Z,3.83
2023-04-03T06:59:35.017Z,3.47
2023-04-03T07:02:03.313Z,2.65
2023-04-03T07:04:31.978Z,2.42
2023-04-03T07:07:00.302Z,2.70
2023-04-03T07:09:28.926Z,3.10
2023-04-03T07:11:57.265Z,12.15
2023-04-03T07:14:26.019Z,10.95
2023-04-03T07:16:55.650Z,11.50
2023-04-03T07:19:25.430Z,3.33
2023-04-03T07:21:53.564Z,2.30
2023-04-03T07:24:22.125Z,1.63
2023-04-03T07:26:52.440Z,2.47
2023-04-03T07:29:21.131Z,1.88
2023-04-03T07:31:50.278Z,1.88
2023-04-03T07:34:20.443Z,1.75
2023-04-03T07:36:48.772Z,1.13
2023-04-03T07:39:17.202Z,1.83
2023-04-03T07:41:45.548Z,1.80
2023-04-03T07:44:14.153Z,1.70
2023-04-03T07:46:43.392Z,1.88
2023-04-03T07:49:12.057Z,1.90
2023-04-03T07:51:41.677Z,1.80
2023-04-03T07:54:10.179Z,1.67
2023-04-03T07:56:38.896Z,1.50
2023-04-03T07:59:07.835Z,2.22
2023-04-03T08:01:36.127Z,1.73
2023-04-03T08:04:04.615Z,7.95
2023-04-03T08:06:45.573Z,3.17
2023-04-03T08:09:17.188Z,6.15
2023-04-03T08:11:46.156Z,5.43
2023-04-03T08:14:17.667Z,2.15
2023-04-03T08:16:47.486Z,2.47
2023-04-03T08:19:25.629Z,2.28
2023-04-03T08:21:55.224Z,1.77
2023-04-03T08:24:25.057Z,2.38
2023-04-03T08:26:53.359Z,1.92
2023-04-03T08:29:23.033Z,1.88
2023-04-03T08:31:51.768Z,1.90
2023-04-03T08:34:20.402Z,1.75
2023-04-03T08:36:49.337Z,1.10
2023-04-03T08:39:17.761Z,1.45
2023-04-03T08:41:48.679Z,1.83
2023-04-03T08:44:23.450Z,2.57
2023-04-03T08:47:13.487Z,1.88
2023-04-03T08:49:48.359Z,1.67
2023-04-03T08:52:20.128Z,2.10
2023-04-03T08:54:54.139Z,1.52
2023-04-03T08:57:30.949Z,1.40
2023-04-03T09:00:01.463Z,2.08
2023-04-03T09:02:33.547Z,1.73
2023-04-03T09:05:04.599Z,2.20
2023-04-03T09:07:38.406Z,2.20
2023-04-03T09:10:08.041Z,1.65
2023-04-03T09:12:40.556Z,2.30
2023-04-03T09:15:31.363Z,2.13
2023-04-03T09:18:08.882Z,2.00
2023-04-03T09:20:44.430Z,2.05
2023-04-03T09:23:21.722Z,1.92
2023-04-03T09:25:50.402Z,2.45
2023-04-03T09:28:19.938Z,2.15
2023-04-03T09:30:48.316Z,2.17
2023-04-03T09:33:16.606Z,2.35
2023-04-03T09:35:48.554Z,2.92
2023-04-03T09:38:20.242Z,2.50
2023-04-03T09:40:50.628Z,2.60
2023-04-03T09:43:29.757Z,2.45
2023-04-03T09:45:58.861Z,2.40
2023-04-03T09:48:29.214Z,2.08
2023-04-03T09:51:00.778Z,2.90
2023-04-03T09:53:34.619Z,2.43
2023-04-03T09:56:05.306Z,2.25
2023-04-03T09:58:49.082Z,2.45
2023-04-03T10:01:30.843Z,2.25
2023-04-03T10:04:11.141Z,3.03
2023-04-03T10:06:44.285Z,2.50
2023-04-03T10:09:22.132Z,2.05
2023-04-03T10:12:02.139Z,2.53
2023-04-03T10:14:32.230Z,2.70
2023-04-03T10:17:05.926Z,2.65
2023-04-03T10:19:42.171Z,3.00
2023-04-03T10:22:18.905Z,3.50
2023-04-03T10:24:54.778Z,2.50
2023-04-03T10:27:32.967Z,3.03
2023-04-03T10:30:08.987Z,2.20
2023-04-03T10:32:57.728Z,2.42
2023-04-03T10:35:36.178Z,2.45
2023-04-03T10:38:10.286Z,2.88
2023-04-03T10:40:44.924Z,2.65
2023-04-03T10:43:19.951Z,2.53
2023-04-03T10:45:56.966Z,2.40
2023-04-03T10:48:46.922Z,2.28
2023-04-03T10:51:23.077Z,3.10
2023-04-03T10:53:57.043Z,3.30
2023-04-03T10:56:33.240Z,3.13
2023-04-03T10:59:07.827Z,3.38
2023-04-03T11:01:41.489Z,4.55
2023-04-03T11:04:12.052Z,3.03
2023-04-03T11:06:45.454Z,4.35
2023-04-03T11:09:21.751Z,34.55
2023-04-03T11:11:50.479Z,3.53
2023-04-03T11:14:24.659Z,3.28
2023-04-03T11:17:01.924Z,3.13
2023-04-03T11:19:37.628Z,3.97
2023-04-03T11:22:11.054Z,3.83
2023-04-03T11:24:42.893Z,4.03
2023-04-03T11:27:17.703Z,2.53
2023-04-03T11:29:47.421Z,4.28
2023-04-03T11:32:36.514Z,3.30
2023-04-03T11:35:07.417Z,3.35
2023-04-03T11:37:38.109Z,3.55
2023-04-03T11:40:10.116Z,2.80
2023-04-03T11:42:40.512Z,2.88
2023-04-03T11:45:19.734Z,4.82
2023-04-03T11:47:51.850Z,3.20
2023-04-03T11:53:06.018Z,3.08
2023-04-03T11:56:00.842Z,3.20
2023-04-03T11:58:30.888Z,6.07
2023-04-03T12:01:08.515Z,2.67
2023-04-03T12:04:03.417Z,2.70
2023-04-03T12:07:18.338Z,2.70
2023-04-03T12:10:30.835Z,2.30
2023-04-03T12:13:03.388Z,2.20
2023-04-03T12:15:52.302Z,6.00
2023-04-03T12:18:56.778Z,3.35
2023-04-03T12:21:25.831Z,3.15
2023-04-03T12:24:05.296Z,2.55
2023-04-03T12:26:48.123Z,2.88
2023-04-03T12:29:22.863Z,2.78
2023-04-03T12:32:06.297Z,2.40
2023-04-03T12:34:53.360Z,3.00
2023-04-03T12:37:49.076Z,2.53
2023-04-03T12:40:23.652Z,2.67
2023-04-03T12:43:12.139Z,2.30
2023-04-03T12:45:43.970Z,1.55
2023-04-03T12:48:16.944Z,1.70
2023-04-03T12:50:47.868Z,1.95
2023-04-03T12:53:19.218Z,1.50
2023-04-03T12:55:49.476Z,3.35
2023-04-03T12:58:19.391Z,3.58
2023-04-03T13:00:47.823Z,2.25
2023-04-03T13:03:25.054Z,4.35
2023-04-03T13:06:01.312Z,2.22
2023-04-03T13:08:30.283Z,4.88
2023-04-03T13:11:03.037Z,2.47
2023-04-03T13:16:01.300Z,2.40
2023-04-03T13:18:33.748Z,1.85
2023-04-03T13:21:05.945Z,2.17
2023-04-03T13:23:34.798Z,1.55
2023-04-03T13:26:06.002Z,2.03
2023-04-03T13:28:35.270Z,1.30
2023-04-03T13:31:08.295Z,2.00
2023-04-03T13:33:39.742Z,2.25
2023-04-03T13:36:10.993Z,2.55
2023-04-03T13:38:41.042Z,2.03
2023-04-03T13:41:26.858Z,2.28
2023-04-03T13:44:06.606Z,2.60
2023-04-03T13:46:41.053Z,1.75
2023-04-03T13:49:21.208Z,1.70
2023-04-03T13:51:57.090Z,1.50
2023-04-03T13:54:35.075Z,1.80
2023-04-03T13:57:12.406Z,1.60
2023-04-03T13:59:40.828Z,2.10
2023-04-03T14:02:18.177Z,1.40
2023-04-03T14:04:57.228Z,1.65
2023-04-03T14:07:26.172Z,2.80
2023-04-03T14:09:55.378Z,2.80
2023-04-03T14:12:31.728Z,2.10
2023-04-03T14:15:00.578Z,2.20
2023-04-03T14:17:29.701Z,2.20
2023-04-03T14:20:01.821Z,14.27
2023-04-03T14:22:33.363Z,2.83
2023-04-03T14:25:02.962Z,2.45
2023-04-03T14:27:37.371Z,3.25
2023-04-03T14:30:07.810Z,6.35
2023-04-03T14:32:36.584Z,15.52
2023-04-03T14:35:05.648Z,3.00
2023-04-03T14:37:34.571Z,4.32
2023-04-03T14:40:05.109Z,12.23
2023-04-03T14:42:37.366Z,9.60
2023-04-03T14:45:09.191Z,18.67
2023-04-03T14:47:41.933Z,2.30
2023-04-03T14:50:14.058Z,6.90
2023-04-03T14:55:11.395Z,8.90
2023-04-03T14:57:41.515Z,14.57
2023-04-03T15:00:13.974Z,3.92
2023-04-03T15:02:43.082Z,4.72
2023-04-03T15:05:13.159Z,5.82
2023-04-03T15:07:43.943Z,13.07
2023-04-03T15:10:18.872Z,3.85
2023-04-03T15:12:49.402Z,3.63
2023-04-03T15:15:20.789Z,4.30
2023-04-03T15:17:51.464Z,2.50
2023-04-03T15:20:21.644Z,15.27
2023-04-03T15:22:50.156Z,4.15
2023-04-03T15:25:19.454Z,2.88
2023-04-03T15:27:49.768Z,5.22
2023-04-03T15:30:19.611Z,16.45
2023-04-03T15:32:48.381Z,3.60
2023-04-03T15:35:17.704Z,8.85
2023-04-03T15:37:46.047Z,14.65
2023-04-03T15:40:14.442Z,17.60
2023-04-03T15:42:43.037Z,3.83
2023-04-03T15:45:12.876Z,3.20
2023-04-03T15:47:41.598Z,15.05
2023-04-03T15:50:10.791Z,7.32
2023-04-03T15:52:39.404Z,3.97
2023-04-03T15:55:08.238Z,5.80
2023-04-03T16:00:12.680Z,3.17
2023-04-03T16:02:42.466Z,4.43
2023-04-03T16:05:12.137Z,12.38
2023-04-03T16:07:41.021Z,7.40
2023-04-03T16:10:11.043Z,2.85
2023-04-03T16:12:39.852Z,4.43
2023-04-03T16:15:09.494Z,2.38
2023-04-03T16:17:39.872Z,2.35
2023-04-03T16:20:09.767Z,4.72
2023-04-03T16:22:39.658Z,16.27
2023-04-03T16:25:11.856Z,3.85
2023-04-03T16:27:40.637Z,2.72
2023-04-03T16:30:10.040Z,5.13
2023-04-03T16:32:40.647Z,4.00
2023-04-03T16:35:11.292Z,2.53
2023-04-03T16:37:40.750Z,2.15
2023-04-03T16:40:10.379Z,2.42
2023-04-03T16:42:39.277Z,2.20
2023-04-03T16:45:08.672Z,1.92
2023-04-03T16:47:37.303Z,2.05
2023-04-03T16:50:07.911Z,2.33
2023-04-03T16:52:36.988Z,2.72
2023-04-03T16:55:05.557Z,2.45
2023-04-03T16:57:34.859Z,2.75
2023-04-03T17:00:03.564Z,2.20
2023-04-03T17:02:32.199Z,2.58
2023-04-03T17:05:00.587Z,2.53
2023-04-03T17:07:30.628Z,2.63
2023-04-03T17:09:58.745Z,3.47
2023-04-03T17:12:27.549Z,2.55
2023-04-03T17:14:56.054Z,2.55
2023-04-03T17:17:25.809Z,2.60
2023-04-03T17:19:56.424Z,6.00
2023-04-03T17:22:25.587Z,6.25
2023-04-03T17:24:55.400Z,20.38
2023-04-03T17:27:23.867Z,14.98
2023-04-03T17:29:52.251Z,17.05
2023-04-03T17:32:21.165Z,13.90
2023-04-03T17:34:49.463Z,7.47
2023-04-03T17:37:17.911Z,27.30
2023-04-03T17:39:47.446Z,33.28
2023-04-03T17:42:17.894Z,12.40
2023-04-03T17:44:46.391Z,8.00
2023-04-03T17:47:15.282Z,11.15
2023-04-03T17:49:43.604Z,7.60
2023-04-03T17:52:12.077Z,6.05
2023-04-03T17:54:41.055Z,6.32
2023-04-03T17:57:09.607Z,12.93
2023-04-03T17:59:39.260Z,8.73
2023-04-03T18:02:08.059Z,7.65
2023-04-03T18:04:36.520Z,12.30
2023-04-03T18:07:09.333Z,12.85
2023-04-03T18:09:38.037Z,7.05
2023-04-03T18:12:08.427Z,7.55
2023-04-03T18:14:39.370Z,6.57
2023-04-03T18:17:09.586Z,5.97
2023-04-03T18:19:38.326Z,4.00
2023-04-03T18:22:09.764Z,4.38
2023-04-03T18:24:38.179Z,3.50
2023-04-03T18:27:10.679Z,4.18
2023-04-03T18:29:41.908Z,4.63
2023-04-03T18:32:12.485Z,4.75
2023-04-03T18:34:40.873Z,4.93
2023-04-03T18:37:09.595Z,5.60
2023-04-03T18:39:38.827Z,6.13
2023-04-03T18:42:10.092Z,5.78
2023-04-03T18:44:40.917Z,6.50
2023-04-03T18:47:09.634Z,7.03
2023-04-03T18:49:39.903Z,7.35
2023-04-03T18:52:08.997Z,7.45
2023-04-03T18:54:38.294Z,7.47
2023-04-03T18:57:07.040Z,8.43
2023-04-03T18:59:35.538Z,8.23
2023-04-03T19:02:06.786Z,8.50
2023-04-03T19:04:35.324Z,10.43
2023-04-03T19:07:07.480Z,9.02
2023-04-03T19:09:38.473Z,9.40
2023-04-03T19:12:07.553Z,9.02
2023-04-03T19:14:35.883Z,8.30
2023-04-03T19:17:08.065Z,8.88
2023-04-03T19:19:36.677Z,9.35
2023-04-03T19:22:06.966Z,9.95
2023-04-03T19:24:35.832Z,8.82
2023-04-03T19:27:04.743Z,9.90
2023-04-03T19:29:32.960Z,8.90
2023-04-03T19:32:01.333Z,9.40
2023-04-03T19:34:31.073Z,8.38
2023-04-03T19:36:59.520Z,10.43
2023-04-03T19:39:29.840Z,9.85
2023-04-03T19:41:58.752Z,9.10
2023-04-03T19:44:27.391Z,11.95
2023-04-03T19:46:56.260Z,11.95
2023-04-03T19:49:24.713Z,13.40
2023-04-03T19:51:54.902Z,14.75
2023-04-03T19:54:23.959Z,16.85
2023-04-03T19:56:52.678Z,17.95
2023-04-03T19:59:21.123Z,19.58
2023-04-03T20:01:49.653Z,21.48
2023-04-03T20:04:19.707Z,24.45
2023-04-03T20:06:49.701Z,22.23
2023-04-03T20:09:21.733Z,23.42
2023-04-03T20:11:51.485Z,22.17
2023-04-03T20:14:21.017Z,21.67
2023-04-03T20:16:49.869Z,19.20
2023-04-03T20:19:17.994Z,18.27
2023-04-03T20:21:46.481Z,19.20
2023-04-03T20:24:16.448Z,18.63
2023-04-03T20:26:47.739Z,18.33
2023-04-03T20:29:16.781Z,17.05
2023-04-03T20:31:46.738Z,18.90
2023-04-03T20:34:15.975Z,19.88
2023-04-03T20:36:47.969Z,19.40
2023-04-03T20:39:18.953Z,19.60
2023-04-03T20:41:49.816Z,19.15
2023-04-03T20:44:19.775Z,17.05
2023-04-03T20:46:53.584Z,16.42
2023-04-03T20:49:22.824Z,17.30
2023-04-03T20:51:52.201Z,15.60
2023-04-03T20:54:20.851Z,15.25
2023-04-03T20:56:51.461Z,16.10
2023-04-03T20:59:20.482Z,15.25
2023-04-03T21:01:49.046Z,16.13
2023-04-03T21:04:23.040Z,15.57
2023-04-03T21:07:28.644Z,16.30
2023-04-03T21:10:34.392Z,15.98
2023-04-03T21:13:40.454Z,15.93
2023-04-03T21:16:08.639Z,15.35
2023-04-03T21:19:03.664Z,16.52
2023-04-03T21:21:31.804Z,13.30
2023-04-03T21:24:00.558Z,14.35
2023-04-03T21:26:28.746Z,15.18
2023-04-03T21:28:57.239Z,15.57
2023-04-03T21:31:25.860Z,14.77
2023-04-03T21:33:54.733Z,15.57
2023-04-03T21:36:24.332Z,14.15
2023-04-03T21:38:53.360Z,15.23
2023-04-03T21:41:21.498Z,14.45
2023-04-03T21:43:49.878Z,14.13
2023-04-03T21:46:20.223Z,16.05
2023-04-03T21:48:48.688Z,15.40
2023-04-03T21:51:17.713Z,14.30
2023-04-03T21:53:47.505Z,13.43
2023-04-03T21:56:15.776Z,14.23
2023-04-03T21:58:44.357Z,14.00
2023-04-03T22:01:13.901Z,15.88
2023-04-03T22:03:43.688Z,14.23
2023-04-03T22:06:14.476Z,14.32
2023-04-03T22:08:42.957Z,15.18
2023-04-03T22:11:14.753Z,15.95
2023-04-03T22:13:44.538Z,15.80
2023-04-03T22:16:13.268Z,17.23
2023-04-03T22:18:41.686Z,17.33
2023-04-03T22:21:09.946Z,17.55
2023-04-03T22:23:38.691Z,16.52
2023-04-03T22:26:07.886Z,17.25
2023-04-03T22:28:40.497Z,18.15
2023-04-03T22:33:37.565Z,17.90
2023-04-03T22:36:06.612Z,17.40
2023-04-03T22:38:36.653Z,18.25
2023-04-03T22:41:07.269Z,17.77
2023-04-03T22:43:38.199Z,17.63
2023-04-03T22:46:08.317Z,17.20
2023-04-03T22:48:37.348Z,17.92
2023-04-03T22:51:07.315Z,17.33
2023-04-03T22:53:35.981Z,17.60
2023-04-03T22:56:08.437Z,16.15
2023-04-03T22:58:38.899Z,17.65
2023-04-03T23:01:08.913Z,17.75
2023-04-03T23:03:38.458Z,16.30
2023-04-03T23:06:07.710Z,16.88
2023-04-03T23:08:37.999Z,16.30
2023-04-03T23:11:09.230Z,16.95
2023-04-03T23:13:39.493Z,15.57
2023-04-03T23:16:08.754Z,16.50
2023-04-03T23:18:39.595Z,14.43
2023-04-03T23:21:09.276Z,14.93
2023-04-03T23:23:37.916Z,12.77
2023-04-03T23:26:06.385Z,14.00
2023-04-03T23:28:35.333Z,13.40
2023-04-03T23:31:06.594Z,11.00
2023-04-03T23:33:35.516Z,11.50
2023-04-03T23:36:08.407Z,10.32
2023-04-03T23:38:37.385Z,9.00
2023-04-03T23:41:05.996Z,9.20
2023-04-03T23:43:34.537Z,8.60
2023-04-03T23:46:04.249Z,8.10
2023-04-03T23:48:32.803Z,7.82
2023-04-03T23:51:00.969Z,8.60
2023-04-03T23:53:29.386Z,7.60
2023-04-03T23:55:57.814Z,7.55
2023-04-03T23:58:26.208Z,8.18
